クアラルンプール の空港の天気 - METARとTAF

クアラルンプール国際空港 ( WMKK / KUL ) - マレーシア スランゴール州セパン
飛行場実況気象(Metar)
観測時間05/26 09:30 +08 (05/26 01:30 UTC)
風向・風速南東 3m/s
視程10km以上
天気現象
少しの雲 雲底高度 910m
全天の4割程度の雲 雲底高度 4270m
全天の8割程度の雲 雲底高度 8530m
気温25℃
湿度94%
気圧1009hPa
METARWMKK 260130Z 13005KT 090V160 9999 FEW030 SCT140 BKN280 25/24 Q1009 NOSIG
過去の天気等 Google飛行場航空写真 Wunderground天気予報

過去48時間のMETAR

飛行場予報(TAF)
発表時間: 5/26 07:00 +08 (5/25 23:00 UTC)
予報対象時間: 26日8時 +08 ~ 27日14時 +08
風向・風速南南東 3m/s
視程10km以上
少しの積乱雲 雲底高度 520m
全天の4割程度の雲 雲底高度 4,270m
全天の8割程度の雲 雲底高度 8,530m
26日8時 +08 ~ 26日11時 +08 に一時的に
視程4,000m
天気現象雷雨
少しの積乱雲 雲底高度 460m
26日14時 +08 ~ 26日18時 +08 に 確率 30% で一時的に
視程4,000m
天気現象雷雨
少しの積乱雲 雲底高度 460m
TAF WMKK 252300Z 2600/2706 15005KT 9999 FEW017CB SCT140 BKN280
TEMPO 2600/2603 4000 TSRA FEW015CB
PROB30 TEMPO 2606/2610 4000 TSRA FEW015CB